Hartwell, Missouri
Current Conditions -  °F | °C
As of 10:35 PM on Sunday 25 Jan 2015 (Local Time) from KGLY Reporting Station
Overcast Overcast  
Wind Chill: 26°   Ceiling: 2000
Heat Index: 36°   Visibility: 10mi
Dew Point: 32°   Wind: 15mph
Humidity: 87%   Direction: 350°N
Pressure: 30.11"   Gusts: NA
Location:  38.4247°N, 93.9558°W
Report Text: KGLY 260435Z AUTO 35013KT 10SM OVC020 02/00 A3011 RMK AO2
Loading
Personal Weather Stations






























Interactive Weather Map New forecast layout! Learn more

10-Day Weather Forecast

Advertisements
Track Severe Weather on mobile